19°C  Θερμ.
11°C  Σημείο Δρόσου
60%  Υγρασία
Θερμοκρασία
5 KM/H
3 MPH
3 KTS
170°
Νότιος

Ταχύτητα Ανέμου
Λίγα Σύννεφα
Ατμοσφαιρική πίεση 1015 (hPa) - 30 (in)
Ορατότητα 10.0 (km) - 6.2 (mi)

Τρέχουσες συνθήκες
LGTS
Location 15(km)
Metar :LGTS 041720Z 17003KT 9999 FEW030 19/11 Q1015 NOSIG
Tue 4th May 20:20 pm

Airport
  Metar Aviation API Data Provided by https://www.checkwx.com/ PHP scripts by weather34.com ©2021